Time;durP1;ratioP1;P1;durP2;ratioP2;P2;SDS_P1;SDS_P2;PMS_P1;PMS_P2;Temp;Humidity;BMP_temperature;BMP_pressure;BME280_temperature;BME280_humidity;BME280_pressure;Samples;Min_cycle;Max_cycle;Signal;HPM_P1;HPM_P2
2023/10/14 00:01:56;;;;;;;0.10;0.10;;;18.70;99.90;;;;;;4960235;28;20189;-80
2023/10/14 00:04:26;;;;;;;0.10;0.10;;;18.60;99.90;;;;;;4960164;28;20218;-80
2023/10/14 00:06:52;;;;;;;0.10;0.10;;;18.70;99.90;;;;;;4962373;28;20182;-80
2023/10/14 00:09:17;;;;;;;0.10;0.10;;;18.60;99.90;;;;;;4959910;28;20188;-80
2023/10/14 00:11:43;;;;;;;0.10;0.10;;;18.60;99.90;;;;;;4960478;28;20218;-80
2023/10/14 00:14:18;;;;;;;0.10;0.10;;;18.60;99.90;;;;;;4961034;28;20571;-80
2023/10/14 00:16:51;;;;;;;0.10;0.10;;;18.50;99.90;;;;;;4960208;28;20201;-80
2023/10/14 00:19:22;;;;;;;0.10;0.10;;;18.60;99.90;;;;;;4959651;28;20188;-80
2023/10/14 00:21:49;;;;;;;0.10;0.10;;;18.60;99.90;;;;;;4960345;28;20177;-80
2023/10/14 00:24:27;;;;;;;0.10;0.10;;;18.60;99.90;;;;;;4973659;28;20196;-80
2023/10/14 00:26:54;;;;;;;0.10;0.10;;;18.60;99.90;;;;;;4977049;28;20176;-80
2023/10/14 00:29:20;;;;;;;0.10;0.10;;;18.60;99.90;;;;;;4977885;28;20216;-80
2023/10/14 00:31:49;;;;;;;0.10;0.10;;;18.70;99.90;;;;;;4977680;28;20580;-80
2023/10/14 00:34:15;;;;;;;0.10;0.10;;;18.70;99.90;;;;;;4975420;28;20223;-80
2023/10/14 00:36:42;;;;;;;0.10;0.10;;;18.70;99.90;;;;;;4971982;28;20910;-80
2023/10/14 00:39:23;;;;;;;0.10;0.10;;;18.80;99.90;;;;;;4968815;28;20746;-80
2023/10/14 00:41:52;;;;;;;0.10;0.10;;;18.80;99.90;;;;;;4969273;28;20177;-80
2023/10/14 00:44:19;;;;;;;0.10;0.10;;;18.80;99.90;;;;;;4965945;28;20189;-80
2023/10/14 00:46:50;;;;;;;0.10;0.10;;;18.90;99.90;;;;;;4968306;28;20668;-79
2023/10/14 00:49:18;;;;;;;0.10;0.10;;;19.00;99.90;;;;;;4966609;28;20188;-79
2023/10/14 00:51:49;;;;;;;0.10;0.10;;;19.10;99.90;;;;;;4965689;28;20193;-81
2023/10/14 00:54:27;;;;;;;0.10;0.10;;;19.10;99.90;;;;;;4967189;28;20254;-81
2023/10/14 00:56:53;;;;;;;0.10;0.10;;;19.20;99.90;;;;;;4965645;28;20181;-81
2023/10/14 00:59:19;;;;;;;0.10;0.10;;;19.30;99.90;;;;;;4964310;28;20185;-81
2023/10/14 01:01:58;;;;;;;0.10;0.10;;;19.40;99.90;;;;;;4966699;28;20195;-81
2023/10/14 01:04:34;;;;;;;0.10;0.10;;;19.50;99.90;;;;;;4966329;28;20199;-80
2023/10/14 01:07:04;;;;;;;0.10;0.10;;;19.60;99.90;;;;;;4965457;28;20183;-81
2023/10/14 01:12:16;;;;;;;0.10;0.10;;;19.70;99.90;;;;;;4967675;28;20176;-81
2023/10/14 01:14:45;;;;;;;0.10;0.10;;;19.60;99.90;;;;;;4966652;28;20209;-81
2023/10/14 01:17:21;;;;;;;0.10;0.10;;;19.60;99.90;;;;;;4962911;28;20189;-81
2023/10/14 01:19:47;;;;;;;0.10;0.10;;;19.60;99.90;;;;;;4968448;28;20575;-81
2023/10/14 01:22:13;;;;;;;0.10;0.10;;;19.70;99.90;;;;;;4968971;28;20185;-81
2023/10/14 01:24:39;;;;;;;0.10;0.10;;;19.70;99.90;;;;;;4969483;28;20205;-81
2023/10/14 01:27:06;;;;;;;0.10;0.10;;;19.70;99.90;;;;;;4967689;28;20679;-81
2023/10/14 01:29:39;;;;;;;0.10;0.10;;;19.70;99.90;;;;;;4967781;28;20243;-81
2023/10/14 01:32:10;;;;;;;0.10;0.10;;;19.90;99.90;;;;;;4968262;28;20625;-81
2023/10/14 01:34:42;;;;;;;0.10;0.10;;;20.00;99.90;;;;;;4966251;28;20680;-81
2023/10/14 01:37:19;;;;;;;0.10;0.10;;;20.00;99.90;;;;;;4967331;28;20629;-81
2023/10/14 01:39:56;;;;;;;0.10;0.10;;;20.00;99.90;;;;;;4968111;28;20206;-81
2023/10/14 01:42:29;;;;;;;0.10;0.10;;;20.10;99.90;;;;;;4968106;28;20195;-81
2023/10/14 01:44:55;;;;;;;0.10;0.10;;;20.10;99.90;;;;;;4982126;28;20239;-81
2023/10/14 01:47:21;;;;;;;0.10;0.10;;;20.20;99.90;;;;;;4963948;28;20279;-81
2023/10/14 01:49:47;;;;;;;0.10;0.10;;;20.30;99.90;;;;;;4963680;28;20184;-81
2023/10/14 01:52:16;;;;;;;0.10;0.10;;;20.40;99.90;;;;;;4964400;28;20653;-81
2023/10/14 01:54:44;;;;;;;0.10;0.10;;;20.40;99.90;;;;;;4961441;28;20881;-81
2023/10/14 01:57:15;;;;;;;0.10;0.10;;;20.50;99.90;;;;;;4965000;28;20267;-81
2023/10/14 01:59:42;;;;;;;0.10;0.10;;;20.50;99.90;;;;;;4964817;28;20196;-81
2023/10/14 02:02:09;;;;;;;0.30;0.30;;;20.60;99.90;;;;;;4964638;28;20181;-81
2023/10/14 02:04:36;;;;;;;0.30;0.30;;;20.50;99.90;;;;;;4965355;28;20312;-81
2023/10/14 02:07:26;;;;;;;0.10;0.10;;;20.60;99.90;;;;;;4962982;28;21234;-81
2023/10/14 02:09:48;;;;;;;0.10;0.10;;;20.50;99.90;;;;;;4964281;28;20192;-81
2023/10/14 02:12:15;;;;;;;0.10;0.10;;;20.60;99.90;;;;;;4961954;28;20180;-81
2023/10/14 02:14:44;;;;;;;0.10;0.10;;;20.60;99.90;;;;;;4960578;28;20802;-81
2023/10/14 02:17:10;;;;;;;0.10;0.10;;;20.50;99.90;;;;;;4962160;28;20228;-81
2023/10/14 02:19:36;;;;;;;0.10;0.10;;;20.50;99.90;;;;;;4961255;28;21263;-81
2023/10/14 02:22:09;;;;;;;0.10;0.10;;;20.50;99.90;;;;;;4962124;28;20244;-82
2023/10/14 02:24:36;;;;;;;0.10;0.10;;;20.50;99.90;;;;;;4961615;28;20680;-81
2023/10/14 02:27:14;;;;;;;0.10;0.10;;;20.60;99.90;;;;;;4961345;28;20275;-81
2023/10/14 02:29:43;;;;;;;0.10;0.10;;;20.60;99.90;;;;;;4962336;28;20302;-81
2023/10/14 02:32:11;;;;;;;0.10;0.10;;;20.70;99.90;;;;;;4961053;28;20188;-81
2023/10/14 02:34:38;;;;;;;0.10;0.10;;;20.70;99.90;;;;;;4961058;28;20259;-81
2023/10/14 02:37:05;;;;;;;0.10;0.10;;;20.80;99.90;;;;;;4961776;28;20235;-81
2023/10/14 02:39:31;;;;;;;0.10;0.10;;;20.80;99.90;;;;;;4959768;28;20927;-81
2023/10/14 02:41:59;;;;;;;0.10;0.10;;;20.80;99.90;;;;;;4960434;28;20224;-81
2023/10/14 02:44:32;;;;;;;0.10;0.10;;;20.80;99.90;;;;;;4960505;28;20185;-81
2023/10/14 02:47:05;;;;;;;0.10;0.10;;;20.80;99.90;;;;;;4965402;28;20177;-81
2023/10/14 02:49:39;;;;;;;0.17;0.17;;;20.80;99.90;;;;;;4961400;28;20549;-81
2023/10/14 02:52:10;;;;;;;0.10;0.10;;;20.80;99.90;;;;;;4962638;28;20308;-81
2023/10/14 02:54:44;;;;;;;0.10;0.10;;;20.80;99.90;;;;;;4962944;28;20586;-81
2023/10/14 02:57:13;;;;;;;0.10;0.10;;;20.80;99.90;;;;;;4977975;28;20546;-81
2023/10/14 03:07:28;;;;;;;0.20;0.20;;;20.70;99.90;;;;;;4974063;28;20196;-81
2023/10/14 03:10:12;;;;;;;0.10;0.10;;;20.80;99.90;;;;;;4963084;28;20193;-81
2023/10/14 03:12:48;;;;;;;0.10;0.10;;;20.80;99.90;;;;;;4962541;28;20588;-81
2023/10/14 03:15:22;;;;;;;0.20;0.20;;;20.70;99.90;;;;;;4963725;28;20196;-81
2023/10/14 03:18:01;;;;;;;0.10;0.10;;;20.70;99.90;;;;;;4961500;28;20173;-81
2023/10/14 03:20:40;;;;;;;2.03;1.93;;;20.60;99.90;;;;;;4962087;28;20288;-81
2023/10/14 03:23:17;;;;;;;0.23;0.23;;;20.60;99.90;;;;;;4960374;28;20211;-82
2023/10/14 03:25:44;;;;;;;0.10;0.10;;;20.50;99.90;;;;;;4964952;28;20208;-81
2023/10/14 03:28:16;;;;;;;0.10;0.10;;;20.50;99.90;;;;;;4963026;28;20249;-81
2023/10/14 03:30:45;;;;;;;0.10;0.10;;;20.40;99.90;;;;;;4963169;28;20177;-81
2023/10/14 03:33:13;;;;;;;0.10;0.10;;;20.40;99.90;;;;;;4960868;28;20207;-81
2023/10/14 03:35:43;;;;;;;0.10;0.10;;;20.40;99.90;;;;;;4963855;28;20208;-80
2023/10/14 03:38:22;;;;;;;0.10;0.10;;;20.40;99.90;;;;;;4973875;28;20169;-80
2023/10/14 03:43:15;;;;;;;0.10;0.10;;;20.40;99.90;;;;;;4961747;28;20189;-81
2023/10/14 03:45:56;;;;;;;0.10;0.10;;;20.40;99.90;;;;;;4959908;28;20208;-81
2023/10/14 03:48:35;;;;;;;0.10;0.10;;;20.30;99.90;;;;;;4959787;28;20195;-81
2023/10/14 03:51:04;;;;;;;0.10;0.10;;;20.30;99.90;;;;;;4956955;28;20724;-81
2023/10/14 03:53:31;;;;;;;0.10;0.10;;;20.30;99.90;;;;;;4976158;28;20231;-81
2023/10/14 03:55:57;;;;;;;0.10;0.10;;;20.30;99.90;;;;;;4959174;28;20212;-81
2023/10/14 03:58:24;;;;;;;0.10;0.10;;;20.30;99.90;;;;;;4961496;28;20590;-81
2023/10/14 04:00:50;;;;;;;6.17;5.93;;;20.30;99.90;;;;;;4960879;28;20185;-81
2023/10/14 04:03:39;;;;;;;1.60;1.50;;;20.30;99.90;;;;;;4958326;28;20204;-81
2023/10/14 04:06:01;;;;;;;0.10;0.10;;;20.20;99.90;;;;;;4960942;28;20201;-81
2023/10/14 04:08:40;;;;;;;0.10;0.10;;;20.30;99.90;;;;;;4960524;28;20254;-81
2023/10/14 04:11:15;;;;;;;0.10;0.10;;;20.30;99.90;;;;;;4961808;28;20172;-82
2023/10/14 04:13:58;;;;;;;0.10;0.10;;;20.30;99.90;;;;;;4961396;28;20210;-81
2023/10/14 04:16:28;;;;;;;0.10;0.10;;;20.20;99.90;;;;;;4962653;28;20711;-81
2023/10/14 04:19:00;;;;;;;0.10;0.10;;;20.20;99.90;;;;;;4960976;28;21104;-81
2023/10/14 04:21:37;;;;;;;0.10;0.10;;;20.20;99.90;;;;;;4959096;28;20196;-81
2023/10/14 04:26:34;;;;;;;0.10;0.10;;;20.10;99.90;;;;;;4960047;28;20216;-81
2023/10/14 04:29:02;;;;;;;0.10;0.10;;;20.10;99.90;;;;;;4959635;28;20200;-81
2023/10/14 04:31:39;;;;;;;0.10;0.10;;;20.10;99.90;;;;;;4959003;28;20188;-81
2023/10/14 04:34:10;;;;;;;0.10;0.10;;;20.00;99.90;;;;;;4961320;28;20331;-81
2023/10/14 04:36:36;;;;;;;0.10;0.10;;;20.00;99.90;;;;;;4961030;28;20538;-81
2023/10/14 04:39:16;;;;;;;0.10;0.10;;;19.90;99.90;;;;;;4960768;28;20189;-81
2023/10/14 04:44:37;;;;;;;0.10;0.10;;;19.90;99.90;;;;;;4961239;28;20199;-82
2023/10/14 04:47:04;;;;;;;0.10;0.10;;;19.80;99.90;;;;;;4961510;28;20248;-83
2023/10/14 04:49:37;;;;;;;0.10;0.10;;;19.80;99.90;;;;;;4959113;28;20271;-82
2023/10/14 04:52:05;;;;;;;0.10;0.10;;;19.70;99.90;;;;;;4958649;28;20193;-82
2023/10/14 04:54:34;;;;;;;0.10;0.10;;;19.60;99.90;;;;;;4959727;28;20572;-81
2023/10/14 04:57:12;;;;;;;0.10;0.10;;;19.60;99.90;;;;;;4962537;28;20659;-81
2023/10/14 04:59:44;;;;;;;0.10;0.10;;;19.50;99.90;;;;;;4961160;28;20281;-81
2023/10/14 05:02:11;;;;;;;0.10;0.10;;;19.40;99.90;;;;;;4962677;28;20602;-81
2023/10/14 05:04:37;;;;;;;0.10;0.10;;;19.40;99.90;;;;;;4961143;28;20738;-80
2023/10/14 05:07:05;;;;;;;0.10;0.10;;;19.40;99.90;;;;;;4961303;28;20185;-81
2023/10/14 05:09:30;;;;;;;0.10;0.10;;;19.40;99.90;;;;;;4961205;28;20183;-80
2023/10/14 05:11:57;;;;;;;0.10;0.10;;;19.20;99.90;;;;;;4962023;28;20189;-81
2023/10/14 05:14:42;;;;;;;0.10;0.10;;;19.10;99.90;;;;;;4960484;28;20208;-80
2023/10/14 05:19:41;;;;;;;0.10;0.10;;;18.90;99.90;;;;;;4962064;28;20187;-81
2023/10/14 05:22:37;;;;;;;0.10;0.10;;;18.80;99.90;;;;;;4959252;28;20560;-81
2023/10/14 05:25:15;;;;;;;0.10;0.10;;;17.10;99.90;;;;;;4960478;28;20205;-81
2023/10/14 05:27:58;;;;;;;0.10;0.10;;;15.80;99.90;;;;;;4959206;28;20181;-81
2023/10/14 05:30:24;;;;;;;0.10;0.10;;;15.40;99.90;;;;;;4960245;28;20172;-82
2023/10/14 05:32:53;;;;;;;0.00;0.00;;;15.10;99.90;;;;;;4958924;28;20239;-81
2023/10/14 05:35:22;;;;;;;0.10;0.10;;;15.10;99.90;;;;;;4958007;28;20204;-82
2023/10/14 05:37:48;;;;;;;0.10;0.10;;;15.00;99.90;;;;;;4959878;28;20189;-81
2023/10/14 05:40:13;;;;;;;0.10;0.10;;;14.90;99.90;;;;;;4960490;28;20198;-82
2023/10/14 05:42:45;;;;;;;0.10;0.10;;;14.80;99.90;;;;;;4961543;28;20193;-81
2023/10/14 05:45:11;;;;;;;0.10;0.10;;;14.70;99.90;;;;;;4962174;28;20743;-81
2023/10/14 05:47:39;;;;;;;0.10;0.10;;;14.80;99.90;;;;;;4959576;28;20624;-82
2023/10/14 05:50:08;;;;;;;0.10;0.10;;;14.90;99.90;;;;;;4960491;28;20277;-82
2023/10/14 05:52:33;;;;;;;0.10;0.10;;;14.90;99.90;;;;;;4960581;28;20185;-81
2023/10/14 05:55:01;;;;;;;0.10;0.10;;;15.00;99.90;;;;;;4959563;28;20207;-81
2023/10/14 05:57:29;;;;;;;0.10;0.10;;;15.10;99.90;;;;;;4956945;28;20188;-80
2023/10/14 05:59:57;;;;;;;0.10;0.10;;;15.10;99.90;;;;;;4960879;28;20189;-80
2023/10/14 06:02:22;;;;;;;0.10;0.10;;;15.00;99.90;;;;;;4963114;28;20195;-80
2023/10/14 06:04:50;;;;;;;0.10;0.10;;;15.10;99.90;;;;;;4962497;28;20208;-80
2023/10/14 06:07:18;;;;;;;0.10;0.10;;;15.20;99.90;;;;;;4964466;28;21769;-80
2023/10/14 06:09:47;;;;;;;0.10;0.10;;;15.30;99.90;;;;;;4962705;28;20189;-81
2023/10/14 06:12:13;;;;;;;0.10;0.10;;;15.30;99.90;;;;;;4962663;28;20183;-80
2023/10/14 06:14:41;;;;;;;0.10;0.10;;;15.40;99.90;;;;;;4979963;28;20232;-81
2023/10/14 06:17:07;;;;;;;0.10;0.10;;;15.50;99.90;;;;;;4963101;28;20711;-81
2023/10/14 06:19:36;;;;;;;0.10;0.10;;;15.50;99.90;;;;;;4961743;28;20578;-80
2023/10/14 06:22:02;;;;;;;0.10;0.10;;;15.50;99.90;;;;;;4959516;28;20268;-81
2023/10/14 06:24:33;;;;;;;0.10;0.10;;;15.50;99.90;;;;;;4960866;28;20186;-81
2023/10/14 06:27:07;;;;;;;0.10;0.10;;;15.50;99.90;;;;;;4962627;28;20193;-81
2023/10/14 06:29:34;;;;;;;0.10;0.10;;;15.60;99.90;;;;;;4960672;28;20287;-79
2023/10/14 06:32:03;;;;;;;0.10;0.10;;;15.60;99.90;;;;;;4961163;28;20181;-80
2023/10/14 06:34:32;;;;;;;0.10;0.10;;;15.70;99.90;;;;;;4960356;28;20209;-81
2023/10/14 06:37:01;;;;;;;0.10;0.10;;;15.80;99.90;;;;;;4959931;28;20216;-80
2023/10/14 06:39:27;;;;;;;0.10;0.10;;;15.90;99.90;;;;;;4962179;28;20195;-81
2023/10/14 06:41:53;;;;;;;0.10;0.10;;;15.80;99.90;;;;;;4961661;28;20191;-81
2023/10/14 06:44:26;;;;;;;0.10;0.10;;;15.70;99.90;;;;;;4962365;28;20246;-80
2023/10/14 06:46:56;;;;;;;0.10;0.10;;;15.60;99.90;;;;;;4973076;28;20188;-80
2023/10/14 06:49:23;;;;;;;0.10;0.10;;;15.70;99.90;;;;;;4960672;28;20214;-81
2023/10/14 06:51:51;;;;;;;0.10;0.10;;;15.80;99.90;;;;;;4961602;28;20192;-81
2023/10/14 06:54:25;;;;;;;0.10;0.10;;;15.90;99.90;;;;;;4977153;28;20204;-81
2023/10/14 06:56:51;;;;;;;0.10;0.10;;;15.90;99.90;;;;;;4960499;28;20212;-81
2023/10/14 06:59:17;;;;;;;0.10;0.10;;;15.90;99.90;;;;;;4960633;28;20656;-81
2023/10/14 07:01:43;;;;;;;0.10;0.10;;;15.70;99.90;;;;;;4959932;28;20233;-81
2023/10/14 07:04:12;;;;;;;0.10;0.10;;;15.40;99.90;;;;;;4961244;28;20316;-81
2023/10/14 07:06:42;;;;;;;0.10;0.10;;;15.00;99.90;;;;;;4959274;28;20215;-82
2023/10/14 07:09:17;;;;;;;0.10;0.10;;;14.70;99.90;;;;;;4961177;28;20188;-80
2023/10/14 07:11:46;;;;;;;0.10;0.10;;;14.80;99.90;;;;;;4962229;28;20240;-81
2023/10/14 07:14:12;;;;;;;0.10;0.10;;;15.00;99.90;;;;;;4960223;28;20266;-81
2023/10/14 07:16:38;;;;;;;0.10;0.10;;;15.00;99.90;;;;;;4963035;28;20212;-81
2023/10/14 07:19:03;;;;;;;0.10;0.10;;;14.90;99.90;;;;;;4958405;28;20846;-81
2023/10/14 07:21:29;;;;;;;0.10;0.10;;;14.80;99.90;;;;;;4958742;28;20553;-81
2023/10/14 07:24:05;;;;;;;0.10;0.10;;;14.80;99.90;;;;;;4961213;28;20252;-81
2023/10/14 07:26:36;;;;;;;0.10;0.10;;;15.00;99.90;;;;;;4962490;28;20204;-81
2023/10/14 07:29:05;;;;;;;0.10;0.10;;;14.90;99.90;;;;;;4962911;28;20242;-81
2023/10/14 07:31:32;;;;;;;0.10;0.10;;;14.30;99.90;;;;;;4965573;28;20250;-81
2023/10/14 07:34:08;;;;;;;0.10;0.10;;;14.50;99.90;;;;;;4975272;28;20222;-80
2023/10/14 07:36:35;;;;;;;0.10;0.10;;;14.60;99.90;;;;;;4966291;28;20296;-80
2023/10/14 07:41:44;;;;;;;0.10;0.10;;;14.80;99.90;;;;;;4963378;28;20250;-80
2023/10/14 07:44:10;;;;;;;0.10;0.10;;;14.80;99.90;;;;;;4963751;28;20200;-80
2023/10/14 07:46:36;;;;;;;0.10;0.10;;;14.70;99.90;;;;;;4964091;28;20212;-81
2023/10/14 07:49:02;;;;;;;0.10;0.10;;;14.50;99.90;;;;;;4961922;28;20199;-82
2023/10/14 07:51:28;;;;;;;0.10;0.10;;;14.50;99.90;;;;;;4961179;28;20197;-81
2023/10/14 07:53:53;;;;;;;0.10;0.10;;;14.60;99.90;;;;;;4958563;28;20218;-82
2023/10/14 07:56:22;;;;;;;0.10;0.10;;;14.70;99.90;;;;;;4958550;28;20211;-82
2023/10/14 07:58:48;;;;;;;0.10;0.10;;;14.80;99.90;;;;;;4959763;28;20205;-80
2023/10/14 08:01:16;;;;;;;0.10;0.10;;;14.80;99.90;;;;;;4961185;28;20196;-81
2023/10/14 08:03:42;;;;;;;0.10;0.10;;;14.90;99.90;;;;;;4956808;28;20211;-81
2023/10/14 08:06:10;;;;;;;0.10;0.10;;;15.10;99.90;;;;;;4956038;28;20212;-81
2023/10/14 08:08:42;;;;;;;0.10;0.10;;;15.20;99.90;;;;;;4963634;28;20185;-81
2023/10/14 08:11:12;;;;;;;0.10;0.10;;;15.30;99.90;;;;;;4959439;28;20297;-81
2023/10/14 08:13:37;;;;;;;0.10;0.10;;;15.40;99.90;;;;;;4958592;28;20213;-80
2023/10/14 08:16:07;;;;;;;0.10;0.10;;;15.60;99.90;;;;;;4962647;28;20200;-81
2023/10/14 08:18:33;;;;;;;0.10;0.10;;;15.60;99.90;;;;;;4961351;28;20180;-81
2023/10/14 08:20:59;;;;;;;0.10;0.10;;;15.30;99.90;;;;;;4960740;28;20279;-81
2023/10/14 08:23:27;;;;;;;0.10;0.10;;;15.40;99.90;;;;;;4960201;28;20186;-81
2023/10/14 08:25:56;;;;;;;0.10;0.10;;;15.50;99.90;;;;;;4963690;28;20207;-81
2023/10/14 08:28:23;;;;;;;0.10;0.10;;;15.20;99.90;;;;;;4956906;28;20673;-81
2023/10/14 08:30:51;;;;;;;0.10;0.10;;;14.70;99.90;;;;;;4977333;28;21028;-81
2023/10/14 08:33:19;;;;;;;0.10;0.10;;;14.80;99.90;;;;;;4961479;28;20274;-80
2023/10/14 08:35:45;;;;;;;0.00;0.00;;;14.80;99.90;;;;;;4958039;28;20212;-81
2023/10/14 08:38:19;;;;;;;0.10;0.10;;;14.90;99.90;;;;;;4976906;28;20655;-81
2023/10/14 08:40:49;;;;;;;0.10;0.10;;;14.70;99.90;;;;;;4960839;28;20199;-80
2023/10/14 08:43:20;;;;;;;0.10;0.10;;;14.70;99.90;;;;;;4963229;28;20256;-80
2023/10/14 08:45:51;;;;;;;0.10;0.10;;;15.20;99.90;;;;;;4963603;28;20210;-80
2023/10/14 08:48:18;;;;;;;0.10;0.10;;;15.20;99.90;;;;;;4958954;28;20228;-81
2023/10/14 08:50:45;;;;;;;0.10;0.10;;;15.30;99.90;;;;;;4960089;28;20221;-81
2023/10/14 08:53:14;;;;;;;0.10;0.10;;;15.60;99.90;;;;;;4960835;28;20235;-81
2023/10/14 08:55:41;;;;;;;0.10;0.10;;;15.40;99.90;;;;;;4975846;28;20203;-81
2023/10/14 08:58:13;;;;;;;0.10;0.10;;;15.30;99.90;;;;;;4954958;28;20282;-81
2023/10/14 09:00:39;;;;;;;0.10;0.10;;;15.60;99.90;;;;;;4957826;28;20549;-81
2023/10/14 09:03:06;;;;;;;0.10;0.10;;;15.70;99.90;;;;;;4958077;28;20647;-81
2023/10/14 09:05:40;;;;;;;0.10;0.10;;;15.80;99.90;;;;;;4957511;28;20294;-81
2023/10/14 09:08:16;;;;;;;0.10;0.10;;;15.80;99.90;;;;;;4955443;28;20695;-82
2023/10/14 09:10:43;;;;;;;0.10;0.10;;;16.10;99.90;;;;;;4956215;28;20271;-80
2023/10/14 09:13:19;;;;;;;0.10;0.10;;;16.30;99.90;;;;;;4958632;28;20215;-81
2023/10/14 09:15:45;;;;;;;0.10;0.10;;;16.50;99.90;;;;;;4973943;28;20607;-80
2023/10/14 09:18:11;;;;;;;0.10;0.10;;;16.40;99.90;;;;;;4952996;28;20268;-81
2023/10/14 09:20:38;;;;;;;0.10;0.10;;;16.50;99.90;;;;;;4959113;28;20657;-81
2023/10/14 09:23:15;;;;;;;0.10;0.10;;;16.70;99.90;;;;;;4959138;28;20181;-81
2023/10/14 09:25:46;;;;;;;0.10;0.10;;;16.80;99.90;;;;;;4974611;28;20247;-81
2023/10/14 09:28:12;;;;;;;0.10;0.10;;;16.80;99.90;;;;;;4958209;28;20184;-80
2023/10/14 09:30:44;;;;;;;0.10;0.10;;;16.80;99.90;;;;;;4960018;28;20243;-81
2023/10/14 09:33:15;;;;;;;0.10;0.10;;;17.00;99.90;;;;;;4957975;28;20208;-81
2023/10/14 09:35:44;;;;;;;0.10;0.10;;;16.80;99.90;;;;;;4958068;28;20211;-80
2023/10/14 09:38:12;;;;;;;0.10;0.10;;;16.80;99.90;;;;;;4957843;28;20185;-81
2023/10/14 09:40:38;;;;;;;0.10;0.10;;;16.80;99.90;;;;;;4962846;28;20187;-80
2023/10/14 09:43:06;;;;;;;0.10;0.10;;;16.80;99.90;;;;;;4962830;28;20196;-81
2023/10/14 09:45:33;;;;;;;0.10;0.10;;;17.00;99.90;;;;;;4959886;28;20215;-81
2023/10/14 09:48:01;;;;;;;0.10;0.10;;;17.00;99.90;;;;;;4998782;28;20188;-81
2023/10/14 09:50:29;;;;;;;0.10;0.10;;;17.20;99.90;;;;;;4961630;28;20197;-80
2023/10/14 09:52:55;;;;;;;0.10;0.10;;;17.40;99.90;;;;;;4963150;28;20212;-81
2023/10/14 09:55:20;;;;;;;0.10;0.10;;;17.10;99.90;;;;;;4963133;28;20288;-81
2023/10/14 09:57:47;;;;;;;0.10;0.10;;;17.30;99.90;;;;;;4961034;28;20260;-81
2023/10/14 10:00:16;;;;;;;0.10;0.10;;;17.50;99.90;;;;;;4977329;28;20186;-81
2023/10/14 10:02:44;;;;;;;0.10;0.10;;;17.50;99.90;;;;;;4963732;28;20196;-81
2023/10/14 10:05:16;;;;;;;0.10;0.10;;;17.40;99.90;;;;;;4962957;28;20570;-81
2023/10/14 10:07:42;;;;;;;0.10;0.10;;;17.20;99.90;;;;;;4964940;28;20260;-81
2023/10/14 10:10:18;;;;;;;0.10;0.10;;;17.40;99.90;;;;;;4962828;28;20217;-81
2023/10/14 10:12:52;;;;;;;0.10;0.10;;;17.80;99.90;;;;;;4958818;28;20193;-81
2023/10/14 10:15:19;;;;;;;0.10;0.10;;;17.80;99.90;;;;;;4961302;28;20204;-80
2023/10/14 10:18:01;;;;;;;0.60;0.60;;;17.90;99.90;;;;;;4962135;28;20185;-81
2023/10/14 10:20:35;;;;;;;0.10;0.10;;;18.20;99.90;;;;;;4964851;28;20188;-81
2023/10/14 10:23:02;;;;;;;0.10;0.10;;;18.20;99.90;;;;;;4962848;28;20248;-81
2023/10/14 10:25:36;;;;;;;0.10;0.10;;;17.90;99.90;;;;;;4961540;28;20208;-81
2023/10/14 10:28:27;;;;;;;0.10;0.10;;;17.40;99.90;;;;;;4961266;28;20188;-81
2023/10/14 10:30:57;;;;;;;0.10;0.10;;;17.10;99.90;;;;;;4959209;28;20200;-82
2023/10/14 10:33:42;;;;;;;0.10;0.10;;;17.30;99.90;;;;;;4962227;28;20259;-81
2023/10/14 10:36:11;;;;;;;0.10;0.10;;;17.50;99.90;;;;;;4963374;28;20204;-81
2023/10/14 10:38:37;;;;;;;0.10;0.10;;;16.80;99.90;;;;;;4959631;28;20235;-82
2023/10/14 10:41:26;;;;;;;6.17;5.73;;;16.90;99.90;;;;;;4970822;28;20177;-81
2023/10/14 10:44:00;;;;;;;0.10;0.10;;;16.70;99.90;;;;;;4963120;28;20190;-81
2023/10/14 10:46:38;;;;;;;0.10;0.10;;;17.20;99.90;;;;;;4959576;28;20250;-82
2023/10/14 10:49:10;;;;;;;0.10;0.10;;;17.10;99.90;;;;;;4958796;28;20192;-82
2023/10/14 10:51:42;;;;;;;0.10;0.10;;;17.50;99.90;;;;;;4959035;28;20188;-81
2023/10/14 10:54:11;;;;;;;0.10;0.10;;;17.60;99.90;;;;;;4963692;28;20232;-82
2023/10/14 10:56:39;;;;;;;0.10;0.10;;;17.80;99.90;;;;;;4961346;28;20569;-82
2023/10/14 10:59:06;;;;;;;0.10;0.10;;;18.00;99.90;;;;;;4962002;28;20652;-82
2023/10/14 11:01:32;;;;;;;0.10;0.10;;;17.90;99.90;;;;;;4960703;28;20185;-82
2023/10/14 11:03:59;;;;;;;0.10;0.10;;;18.30;99.90;;;;;;4961919;28;20981;-82
2023/10/14 11:06:26;;;;;;;0.10;0.10;;;18.60;99.90;;;;;;4958473;28;20270;-82
2023/10/14 11:08:52;;;;;;;0.10;0.10;;;18.50;99.90;;;;;;4958288;28;20188;-82
2023/10/14 11:11:17;;;;;;;0.10;0.10;;;18.50;99.90;;;;;;4975437;28;20204;-82
2023/10/14 11:13:43;;;;;;;0.10;0.10;;;18.80;99.90;;;;;;4960148;28;20597;-82
2023/10/14 11:16:12;;;;;;;0.10;0.10;;;18.70;99.90;;;;;;4958127;28;20687;-81
2023/10/14 11:18:58;;;;;;;0.10;0.10;;;18.30;99.90;;;;;;4958759;28;20200;-82
2023/10/14 11:21:27;;;;;;;0.10;0.10;;;18.40;99.90;;;;;;4960580;28;20210;-82
2023/10/14 11:23:53;;;;;;;0.10;0.10;;;18.00;99.90;;;;;;4960273;28;20675;-83
2023/10/14 11:26:19;;;;;;;0.10;0.10;;;18.10;99.90;;;;;;4959170;28;20204;-82
2023/10/14 11:28:45;;;;;;;0.10;0.10;;;18.00;99.90;;;;;;4958464;28;20192;-83
2023/10/14 11:31:12;;;;;;;0.10;0.10;;;17.70;99.90;;;;;;4962377;28;20184;-81
2023/10/14 11:33:38;;;;;;;0.10;0.10;;;18.00;99.90;;;;;;4964413;28;20262;-81
2023/10/14 11:36:04;;;;;;;0.10;0.10;;;17.60;99.90;;;;;;4961047;28;20201;-82
2023/10/14 11:38:31;;;;;;;0.10;0.10;;;17.50;99.90;;;;;;4962033;28;20184;-82
2023/10/14 11:41:02;;;;;;;0.10;0.10;;;17.40;99.90;;;;;;4959275;28;20190;-82
2023/10/14 11:43:30;;;;;;;0.10;0.10;;;17.90;99.90;;;;;;4976542;28;20197;-82
2023/10/14 11:45:56;;;;;;;0.10;0.10;;;18.10;99.90;;;;;;4961600;28;20579;-82
2023/10/14 11:48:26;;;;;;;0.10;0.10;;;18.30;99.90;;;;;;4974929;28;20687;-82
2023/10/14 11:50:59;;;;;;;0.10;0.10;;;18.00;99.90;;;;;;4960583;28;20329;-82
2023/10/14 11:53:29;;;;;;;0.10;0.10;;;18.50;99.90;;;;;;4976126;28;20719;-83
2023/10/14 11:56:03;;;;;;;0.10;0.10;;;18.60;99.80;;;;;;4960661;28;20236;-82
2023/10/14 11:58:33;;;;;;;0.10;0.10;;;18.70;99.60;;;;;;4959646;28;20263;-82
2023/10/14 12:00:59;;;;;;;0.10;0.10;;;19.00;99.90;;;;;;4961970;28;20181;-82
2023/10/14 12:03:25;;;;;;;0.10;0.10;;;19.20;99.90;;;;;;4960188;28;20193;-82
2023/10/14 12:05:57;;;;;;;0.10;0.10;;;19.40;99.90;;;;;;4958348;28;20266;-82
2023/10/14 12:08:25;;;;;;;0.10;0.10;;;19.80;99.90;;;;;;4958286;28;20272;-82
2023/10/14 12:10:51;;;;;;;0.10;0.10;;;20.00;99.90;;;;;;4962158;28;20757;-82
2023/10/14 12:13:18;;;;;;;0.10;0.10;;;19.90;99.90;;;;;;4960455;28;20220;-82
2023/10/14 12:15:43;;;;;;;0.10;0.10;;;19.90;99.50;;;;;;4959705;28;20349;-82
2023/10/14 12:18:13;;;;;;;0.10;0.10;;;19.60;99.40;;;;;;4958813;28;20279;-83
2023/10/14 12:20:46;;;;;;;0.10;0.10;;;19.60;99.90;;;;;;4956578;28;20598;-82
2023/10/14 12:23:12;;;;;;;0.10;0.10;;;19.20;99.30;;;;;;4961384;28;20226;-82
2023/10/14 12:25:39;;;;;;;0.10;0.10;;;19.10;99.90;;;;;;4960358;28;20205;-82
2023/10/14 12:28:05;;;;;;;0.10;0.10;;;18.50;99.60;;;;;;4959144;28;20192;-82
2023/10/14 12:30:43;;;;;;;0.10;0.10;;;18.20;99.90;;;;;;4960435;28;20184;-82
2023/10/14 12:33:18;;;;;;;0.10;0.10;;;18.20;99.90;;;;;;4958711;28;20201;-82
2023/10/14 12:35:45;;;;;;;0.10;0.10;;;18.10;99.90;;;;;;4960003;28;20204;-82
2023/10/14 12:38:15;;;;;;;0.10;0.10;;;17.70;99.90;;;;;;4958497;28;20187;-82
2023/10/14 12:40:43;;;;;;;0.10;0.10;;;17.90;99.90;;;;;;4956961;28;20707;-82
2023/10/14 12:43:12;;;;;;;0.10;0.10;;;17.60;99.90;;;;;;4976566;28;20184;-82
2023/10/14 12:45:40;;;;;;;0.10;0.10;;;17.20;99.90;;;;;;4957171;28;20231;-82
2023/10/14 12:48:11;;;;;;;0.10;0.10;;;17.40;99.90;;;;;;4973102;28;20727;-82
2023/10/14 12:50:41;;;;;;;0.10;0.10;;;17.70;99.90;;;;;;4955443;28;20197;-82
2023/10/14 12:53:10;;;;;;;0.10;0.10;;;17.60;99.90;;;;;;4958373;28;20804;-82
2023/10/14 12:55:39;;;;;;;0.10;0.10;;;17.60;99.10;;;;;;4954466;28;20220;-81
2023/10/14 12:58:04;;;;;;;0.10;0.10;;;17.90;99.00;;;;;;4956590;28;20664;-82
2023/10/14 13:00:30;;;;;;;0.10;0.10;;;18.20;98.90;;;;;;4956508;28;20185;-82
2023/10/14 13:03:00;;;;;;;0.10;0.10;;;18.20;99.10;;;;;;4958886;28;20585;-82
2023/10/14 13:05:26;;;;;;;0.10;0.10;;;18.00;99.70;;;;;;4958819;28;20205;-81
2023/10/14 13:07:54;;;;;;;0.10;0.10;;;17.80;99.90;;;;;;4959323;28;20196;-82
2023/10/14 13:10:24;;;;;;;0.10;0.10;;;17.60;99.90;;;;;;4973089;28;20191;-82
2023/10/14 13:12:55;;;;;;;0.10;0.10;;;17.40;99.90;;;;;;4958413;28;20184;-82
2023/10/14 13:15:29;;;;;;;0.10;0.10;;;17.20;99.90;;;;;;4961888;28;20583;-82
2023/10/14 13:18:00;;;;;;;0.10;0.10;;;17.20;99.60;;;;;;4964193;28;20181;-82
2023/10/14 13:20:30;;;;;;;0.10;0.10;;;16.80;99.10;;;;;;4961798;28;20179;-82
2023/10/14 13:23:03;;;;;;;0.10;0.10;;;17.00;98.90;;;;;;4964298;28;20188;-82
2023/10/14 13:25:32;;;;;;;0.10;0.10;;;16.80;99.20;;;;;;4961581;28;20208;-81